createdAt,value
2018-06-05T00:02:38.313Z,16.70
2018-06-05T00:05:43.539Z,16.60
2018-06-05T00:08:48.836Z,16.70
2018-06-05T00:11:54.267Z,16.70
2018-06-05T00:14:58.830Z,16.70
2018-06-05T00:18:03.907Z,16.60
2018-06-05T00:21:08.546Z,16.70
2018-06-05T00:24:14.502Z,16.70
2018-06-05T00:27:19.676Z,16.60
2018-06-05T00:30:24.885Z,16.40
2018-06-05T00:33:31.165Z,16.30
2018-06-05T00:36:35.710Z,16.30
2018-06-05T00:39:40.424Z,16.30
2018-06-05T00:42:45.025Z,16.30
2018-06-05T00:45:51.248Z,16.40
2018-06-05T00:48:57.007Z,16.50
2018-06-05T00:52:07.625Z,16.50
2018-06-05T00:55:12.194Z,16.40
2018-06-05T00:58:19.047Z,16.30
2018-06-05T01:01:23.642Z,16.30
2018-06-05T01:04:28.235Z,16.30
2018-06-05T01:07:32.693Z,16.10
2018-06-05T01:10:38.194Z,16.00
2018-06-05T01:13:43.071Z,16.10
2018-06-05T01:16:47.659Z,16.00
2018-06-05T01:19:52.827Z,16.00
2018-06-05T01:22:58.396Z,15.90
2018-06-05T01:26:04.247Z,15.80
2018-06-05T01:29:08.921Z,15.90
2018-06-05T01:32:14.452Z,15.90
2018-06-05T01:35:18.956Z,15.90
2018-06-05T01:38:23.604Z,15.90
2018-06-05T01:41:29.595Z,15.90
2018-06-05T01:44:34.179Z,15.80
2018-06-05T01:47:41.124Z,15.70
2018-06-05T01:50:46.855Z,15.60
2018-06-05T01:53:53.568Z,15.60
2018-06-05T01:56:59.002Z,15.70
2018-06-05T02:00:03.659Z,15.60
2018-06-05T02:03:08.387Z,15.60
2018-06-05T02:06:13.841Z,15.60
2018-06-05T02:09:18.354Z,15.50
2018-06-05T02:12:22.967Z,15.50
2018-06-05T02:15:28.396Z,15.40
2018-06-05T02:18:33.929Z,15.40
2018-06-05T02:21:38.557Z,15.20
2018-06-05T02:24:43.131Z,15.20
2018-06-05T02:27:47.806Z,15.30
2018-06-05T02:30:52.454Z,15.30
2018-06-05T02:33:58.036Z,15.30
2018-06-05T02:37:02.621Z,15.00
2018-06-05T02:40:06.958Z,15.20
2018-06-05T02:43:12.247Z,15.20
2018-06-05T02:46:17.059Z,15.10
2018-06-05T02:49:23.832Z,15.00
2018-06-05T02:52:29.536Z,15.20
2018-06-05T02:55:35.020Z,15.00
2018-06-05T02:58:46.096Z,15.00
2018-06-05T03:01:51.148Z,15.10
2018-06-05T03:04:55.731Z,15.00
2018-06-05T03:08:01.413Z,15.00
2018-06-05T03:11:06.046Z,14.90
2018-06-05T03:14:12.128Z,14.80
2018-06-05T03:17:29.012Z,14.70
2018-06-05T03:20:34.147Z,14.70
2018-06-05T03:23:39.890Z,14.70
2018-06-05T03:30:15.039Z,14.80
2018-06-05T03:33:27.986Z,15.00
2018-06-05T03:36:38.325Z,14.80
2018-06-05T03:39:43.966Z,14.80
2018-06-05T03:42:50.719Z,14.90
2018-06-05T03:46:03.569Z,15.00
2018-06-05T03:49:08.307Z,15.10
2018-06-05T03:52:15.756Z,15.20
2018-06-05T03:55:27.192Z,15.20
2018-06-05T03:58:36.568Z,15.30
2018-06-05T04:01:42.666Z,15.40
2018-06-05T04:04:47.931Z,15.40
2018-06-05T04:07:57.460Z,15.40
2018-06-05T04:11:06.895Z,15.40
2018-06-05T04:14:12.714Z,15.50
2018-06-05T04:17:20.049Z,15.40
2018-06-05T04:20:24.680Z,15.40
2018-06-05T04:23:30.501Z,15.40
2018-06-05T04:26:36.748Z,15.50
2018-06-05T04:29:41.266Z,15.60
2018-06-05T04:32:50.432Z,15.60
2018-06-05T04:35:54.785Z,15.60
2018-06-05T04:38:59.363Z,15.70
2018-06-05T04:42:03.928Z,15.70
2018-06-05T04:45:15.357Z,15.70
2018-06-05T04:48:20.821Z,15.80
2018-06-05T04:51:28.829Z,15.70
2018-06-05T04:54:40.649Z,15.80
2018-06-05T04:57:45.201Z,15.70
2018-06-05T05:00:50.498Z,15.80
2018-06-05T05:03:57.951Z,16.00
2018-06-05T05:07:13.848Z,15.90
2018-06-05T05:10:30.895Z,15.90
2018-06-05T05:13:40.876Z,15.90
2018-06-05T05:20:45.712Z,16.00
2018-06-05T05:23:50.957Z,16.20
2018-06-05T05:27:02.574Z,16.20
2018-06-05T05:30:09.090Z,16.20
2018-06-05T05:33:25.163Z,16.20
2018-06-05T05:36:34.093Z,16.30
2018-06-05T05:39:41.269Z,16.30
2018-06-05T05:42:51.272Z,16.20
2018-06-05T05:45:56.495Z,16.40
2018-06-05T05:55:28.454Z,16.30
2018-06-05T05:58:37.142Z,16.40
2018-06-05T06:01:42.493Z,16.40
2018-06-05T06:04:47.488Z,16.40
2018-06-05T06:07:55.968Z,16.50
2018-06-05T06:11:05.588Z,16.40
2018-06-05T06:14:17.472Z,16.40
2018-06-05T06:17:23.276Z,16.40
2018-06-05T06:20:32.624Z,16.50
2018-06-05T06:23:39.985Z,16.40
2018-06-05T06:26:46.657Z,16.50
2018-06-05T06:29:51.959Z,16.50
2018-06-05T06:36:16.526Z,16.60
2018-06-05T06:39:27.190Z,16.60
2018-06-05T06:42:33.074Z,16.70
2018-06-05T06:45:40.458Z,16.70
2018-06-05T06:48:51.580Z,16.70
2018-06-05T06:51:59.466Z,16.60
2018-06-05T06:55:11.435Z,16.60
2018-06-05T06:58:17.689Z,16.70
2018-06-05T07:01:22.355Z,16.90
2018-06-05T07:04:30.605Z,16.80
2018-06-05T07:08:07.957Z,16.80
2018-06-05T07:11:12.497Z,16.80
2018-06-05T07:14:20.394Z,16.90
2018-06-05T07:17:33.636Z,16.70
2018-06-05T07:20:38.158Z,16.70
2018-06-05T07:23:43.407Z,16.90
2018-06-05T07:26:50.370Z,17.00
2018-06-05T07:29:54.998Z,17.20
2018-06-05T07:33:21.343Z,17.20
2018-06-05T07:36:33.874Z,17.00
2018-06-05T07:39:39.589Z,17.20
2018-06-05T07:42:44.312Z,17.10
2018-06-05T07:45:51.809Z,17.20
2018-06-05T07:48:57.076Z,17.30
2018-06-05T07:52:01.984Z,17.40
2018-06-05T07:55:06.997Z,17.60
2018-06-05T07:58:11.773Z,17.50
2018-06-05T08:01:31.100Z,17.50
2018-06-05T08:04:56.362Z,17.50
2018-06-05T08:08:08.138Z,17.60
2018-06-05T08:11:12.564Z,17.60
2018-06-05T08:14:20.550Z,17.50
2018-06-05T08:17:28.768Z,17.60
2018-06-05T08:20:33.271Z,17.70
2018-06-05T08:23:47.719Z,17.80
2018-06-05T08:26:58.943Z,17.70
2018-06-05T08:30:07.018Z,17.60
2018-06-05T08:33:12.444Z,17.80
2018-06-05T08:36:22.892Z,17.90
2018-06-05T08:39:27.483Z,18.30
2018-06-05T08:42:35.971Z,18.60
2018-06-05T08:45:41.225Z,18.90
2018-06-05T08:48:45.795Z,18.50
2018-06-05T08:51:51.142Z,18.50
2018-06-05T08:54:56.313Z,18.40
2018-06-05T08:58:01.145Z,18.40
2018-06-05T09:01:06.028Z,18.40
2018-06-05T09:04:12.069Z,18.50
2018-06-05T09:07:17.407Z,18.30
2018-06-05T09:10:24.430Z,18.30
2018-06-05T09:13:31.158Z,18.20
2018-06-05T09:16:40.803Z,18.30
2018-06-05T09:19:54.184Z,18.50
2018-06-05T09:22:58.720Z,18.70
2018-06-05T09:26:04.052Z,18.60
2018-06-05T09:29:11.978Z,18.70
2018-06-05T09:32:33.646Z,18.80
2018-06-05T09:35:48.957Z,18.80
2018-06-05T09:38:56.097Z,19.60
2018-06-05T09:42:02.231Z,20.50
2018-06-05T09:45:18.852Z,21.00
2018-06-05T09:48:25.764Z,20.90
2018-06-05T09:51:37.919Z,21.10
2018-06-05T09:54:45.634Z,21.20
2018-06-05T09:57:52.086Z,21.60
2018-06-05T10:00:58.536Z,22.00
2018-06-05T10:04:06.140Z,21.30
2018-06-05T10:07:16.557Z,21.20
2018-06-05T10:10:25.111Z,21.30
2018-06-05T10:13:31.840Z,22.90
2018-06-05T10:16:37.235Z,22.90
2018-06-05T10:19:42.894Z,22.60
2018-06-05T10:22:49.280Z,22.00
2018-06-05T10:25:56.104Z,21.40
2018-06-05T10:29:01.504Z,21.40
2018-06-05T10:32:06.377Z,21.60
2018-06-05T10:35:11.663Z,22.00
2018-06-05T10:38:16.291Z,23.30
2018-06-05T10:41:24.589Z,22.50
2018-06-05T10:44:32.172Z,22.20
2018-06-05T10:47:37.709Z,22.00
2018-06-05T10:50:45.012Z,22.50
2018-06-05T10:53:50.318Z,22.40
2018-06-05T10:57:01.704Z,22.20
2018-06-05T11:00:13.256Z,22.20
2018-06-05T11:03:20.752Z,22.10
2018-06-05T11:06:30.058Z,22.10
2018-06-05T11:09:35.887Z,22.10
2018-06-05T11:12:40.483Z,22.90
2018-06-05T11:15:44.905Z,23.40
2018-06-05T11:19:17.267Z,23.40
2018-06-05T11:22:24.772Z,23.60
2018-06-05T11:25:33.806Z,23.50
2018-06-05T11:28:45.638Z,23.90
2018-06-05T11:32:02.792Z,24.20
2018-06-05T11:35:13.352Z,24.90
2018-06-05T11:38:24.450Z,25.10
2018-06-05T11:41:30.430Z,24.80
2018-06-05T11:44:42.320Z,23.80
2018-06-05T11:47:50.952Z,23.40
2018-06-05T11:50:57.246Z,23.30
2018-06-05T11:54:05.911Z,23.00
2018-06-05T11:57:11.722Z,22.70
2018-06-05T12:00:23.406Z,22.80
2018-06-05T12:03:32.749Z,22.40
2018-06-05T12:06:38.569Z,22.30
2018-06-05T12:09:49.632Z,22.20
2018-06-05T12:12:55.585Z,22.50
2018-06-05T12:16:00.477Z,22.50
2018-06-05T12:19:10.539Z,22.30
2018-06-05T12:22:18.763Z,22.30
2018-06-05T12:25:28.498Z,22.10
2018-06-05T12:28:33.142Z,22.40
2018-06-05T12:31:38.974Z,22.60
2018-06-05T12:34:44.748Z,22.60
2018-06-05T12:37:56.964Z,22.50
2018-06-05T12:41:03.676Z,22.20
2018-06-05T12:44:08.648Z,22.30
2018-06-05T12:47:13.355Z,22.50
2018-06-05T12:50:20.913Z,22.20
2018-06-05T12:53:27.852Z,22.40
2018-06-05T12:56:32.450Z,21.80
2018-06-05T12:59:42.903Z,21.90
2018-06-05T13:02:47.462Z,22.30
2018-06-05T13:05:57.714Z,22.00
2018-06-05T13:09:05.819Z,22.00
2018-06-05T13:12:10.574Z,22.10
2018-06-05T13:15:15.938Z,22.20
2018-06-05T13:24:48.628Z,22.20
2018-06-05T13:27:54.791Z,22.30
2018-06-05T13:31:07.350Z,22.80
2018-06-05T13:34:18.301Z,22.90
2018-06-05T13:37:30.381Z,22.60
2018-06-05T13:40:42.788Z,22.60
2018-06-05T13:43:49.575Z,22.70
2018-06-05T13:47:06.277Z,22.70
2018-06-05T13:50:14.749Z,22.80
2018-06-05T13:53:27.645Z,22.70
2018-06-05T13:56:34.561Z,22.60
2018-06-05T13:59:41.964Z,22.90
2018-06-05T14:02:48.615Z,22.90
2018-06-05T14:05:59.650Z,22.90
2018-06-05T14:09:07.888Z,22.90
2018-06-05T14:12:30.065Z,22.70
2018-06-05T14:15:44.038Z,22.60
2018-06-05T14:18:58.820Z,22.80
2018-06-05T14:22:15.827Z,23.00
2018-06-05T14:25:20.517Z,22.80
2018-06-05T14:28:35.761Z,22.60
2018-06-05T14:31:41.337Z,22.80
2018-06-05T14:34:47.402Z,23.00
2018-06-05T14:37:53.324Z,23.00
2018-06-05T14:41:03.486Z,23.00
2018-06-05T14:44:11.990Z,23.00
2018-06-05T14:47:19.463Z,23.20
2018-06-05T14:50:30.648Z,23.10
2018-06-05T14:53:35.372Z,23.10
2018-06-05T14:56:42.353Z,23.00
2018-06-05T14:59:49.456Z,23.00
2018-06-05T15:02:54.452Z,22.90
2018-06-05T15:06:07.704Z,22.90
2018-06-05T15:09:13.673Z,22.90
2018-06-05T15:12:19.868Z,22.80
2018-06-05T15:15:28.868Z,23.10
2018-06-05T15:18:45.991Z,23.10
2018-06-05T15:22:11.527Z,23.20
2018-06-05T15:25:16.088Z,23.00
2018-06-05T15:28:22.292Z,23.10
2018-06-05T15:31:27.736Z,23.00
2018-06-05T15:34:36.054Z,23.10
2018-06-05T15:37:43.822Z,23.10
2018-06-05T15:40:57.171Z,23.20
2018-06-05T15:44:02.597Z,23.40
2018-06-05T15:47:09.541Z,23.30
2018-06-05T15:50:20.341Z,23.30
2018-06-05T15:53:35.902Z,23.20
2018-06-05T15:56:45.119Z,23.20
2018-06-05T16:00:04.231Z,23.00
2018-06-05T16:03:14.010Z,23.10
2018-06-05T16:06:21.738Z,23.10
2018-06-05T16:09:29.201Z,23.10
2018-06-05T16:12:35.514Z,23.20
2018-06-05T16:15:41.707Z,23.00
2018-06-05T16:18:48.523Z,23.00
2018-06-05T16:22:02.171Z,23.00
2018-06-05T16:25:09.183Z,22.80
2018-06-05T16:28:35.637Z,22.90
2018-06-05T16:31:57.187Z,22.80
2018-06-05T16:35:05.300Z,22.90
2018-06-05T16:38:10.571Z,23.00
2018-06-05T16:41:15.205Z,23.00
2018-06-05T16:44:22.817Z,22.90
2018-06-05T16:47:28.779Z,22.90
2018-06-05T16:50:34.953Z,22.90
2018-06-05T16:53:40.634Z,22.70
2018-06-05T16:56:49.170Z,22.70
2018-06-05T16:59:56.888Z,22.70
2018-06-05T17:03:02.959Z,22.70
2018-06-05T17:06:08.861Z,22.70
2018-06-05T17:09:19.792Z,22.70
2018-06-05T17:12:38.097Z,22.60
2018-06-05T17:19:15.014Z,22.40
2018-06-05T17:22:30.282Z,22.40
2018-06-05T17:25:34.906Z,22.40
2018-06-05T17:28:41.555Z,22.40
2018-06-05T17:31:47.342Z,22.40
2018-06-05T17:34:55.418Z,22.30
2018-06-05T17:38:00.346Z,22.20
2018-06-05T17:41:05.097Z,22.20
2018-06-05T17:44:15.441Z,22.10
2018-06-05T17:47:23.932Z,22.10
2018-06-05T17:50:32.546Z,22.10
2018-06-05T17:54:06.188Z,22.10
2018-06-05T17:57:12.043Z,22.00
2018-06-05T18:00:22.439Z,22.00
2018-06-05T18:03:29.933Z,21.90
2018-06-05T18:06:34.410Z,21.90
2018-06-05T18:09:38.889Z,21.80
2018-06-05T18:12:43.173Z,21.80
2018-06-05T18:15:47.719Z,21.80
2018-06-05T18:19:02.943Z,21.80
2018-06-05T18:22:07.947Z,21.70
2018-06-05T18:25:12.306Z,21.70
2018-06-05T18:28:17.104Z,21.60
2018-06-05T18:31:25.053Z,21.60
2018-06-05T18:34:40.831Z,21.50
2018-06-05T18:37:45.230Z,21.50
2018-06-05T18:40:49.739Z,21.40
2018-06-05T18:44:06.739Z,21.30
2018-06-05T18:47:11.208Z,21.20
2018-06-05T18:50:15.539Z,21.20
2018-06-05T18:53:21.700Z,21.20
2018-06-05T18:56:34.320Z,21.10
2018-06-05T18:59:38.736Z,21.00
2018-06-05T19:02:43.911Z,21.00
2018-06-05T19:05:48.406Z,20.90
2018-06-05T19:08:57.136Z,20.80
2018-06-05T19:12:01.648Z,20.70
2018-06-05T19:15:18.264Z,20.60
2018-06-05T19:18:37.470Z,20.50
2018-06-05T19:21:42.021Z,20.40
2018-06-05T19:24:46.398Z,20.40
2018-06-05T19:27:57.045Z,20.20
2018-06-05T19:31:02.117Z,20.20
2018-06-05T19:34:06.866Z,20.10
2018-06-05T19:37:11.231Z,20.00
2018-06-05T19:40:15.606Z,19.90
2018-06-05T19:43:30.142Z,19.70
2018-06-05T19:46:37.178Z,19.70
2018-06-05T19:53:05.927Z,19.50
2018-06-05T19:56:14.204Z,19.40
2018-06-05T19:59:18.648Z,19.40
2018-06-05T20:02:27.523Z,19.30
2018-06-05T20:05:31.977Z,19.20
2018-06-05T20:08:36.460Z,19.10
2018-06-05T20:11:41.006Z,19.00
2018-06-05T20:14:45.517Z,19.00
2018-06-05T20:17:51.130Z,18.90
2018-06-05T20:20:58.623Z,18.90
2018-06-05T20:24:03.075Z,18.80
2018-06-05T20:27:09.929Z,18.60
2018-06-05T20:30:16.258Z,18.50
2018-06-05T20:33:23.931Z,18.40
2018-06-05T20:36:31.701Z,18.30
2018-06-05T20:39:36.148Z,18.20
2018-06-05T20:42:40.963Z,18.10
2018-06-05T20:45:45.580Z,18.00
2018-06-05T20:48:50.584Z,17.90
2018-06-05T20:52:01.868Z,17.80
2018-06-05T20:55:07.198Z,17.80
2018-06-05T20:58:11.698Z,17.80
2018-06-05T21:01:16.300Z,17.80
2018-06-05T21:04:21.457Z,17.80
2018-06-05T21:07:26.982Z,17.80
2018-06-05T21:10:31.595Z,17.70
2018-06-05T21:13:36.027Z,17.70
2018-06-05T21:16:40.535Z,17.60
2018-06-05T21:19:45.069Z,17.60
2018-06-05T21:22:50.376Z,17.50
2018-06-05T21:26:02.264Z,17.50
2018-06-05T21:29:07.278Z,17.30
2018-06-05T21:32:11.881Z,17.30
2018-06-05T21:35:16.397Z,17.20
2018-06-05T21:38:22.291Z,17.10
2018-06-05T21:41:29.274Z,16.90
2018-06-05T21:44:33.728Z,16.90
2018-06-05T21:47:38.224Z,16.80
2018-06-05T21:50:42.872Z,16.80
2018-06-05T21:53:47.519Z,16.60
2018-06-05T21:56:56.832Z,16.50
2018-06-05T22:00:04.910Z,16.40
2018-06-05T22:03:09.533Z,16.40
2018-06-05T22:06:14.051Z,16.40
2018-06-05T22:09:18.596Z,16.30
2018-06-05T22:12:29.678Z,16.20
2018-06-05T22:15:34.453Z,16.10
2018-06-05T22:18:39.065Z,16.00
2018-06-05T22:21:43.589Z,16.00
2018-06-05T22:24:48.215Z,15.90
2018-06-05T22:27:54.249Z,16.00
2018-06-05T22:30:58.760Z,15.90
2018-06-05T22:34:03.370Z,15.90
2018-06-05T22:37:09.317Z,16.00
2018-06-05T22:40:13.980Z,16.00
2018-06-05T22:43:18.425Z,15.80
2018-06-05T22:46:38.491Z,15.90
2018-06-05T22:49:42.906Z,15.90
2018-06-05T22:52:47.380Z,15.60
2018-06-05T22:55:52.674Z,15.60
2018-06-05T22:59:02.243Z,15.60
2018-06-05T23:02:08.509Z,15.50
2018-06-05T23:05:13.952Z,15.40
2018-06-05T23:08:19.292Z,15.50
2018-06-05T23:11:36.211Z,15.50
2018-06-05T23:14:51.044Z,15.40
2018-06-05T23:17:56.922Z,15.40
2018-06-05T23:21:01.447Z,15.40
2018-06-05T23:24:08.590Z,15.30
2018-06-05T23:27:15.637Z,15.30
2018-06-05T23:33:30.716Z,15.20
2018-06-05T23:36:35.263Z,15.10
2018-06-05T23:39:39.593Z,15.00
2018-06-05T23:42:47.703Z,14.90
2018-06-05T23:45:55.853Z,14.90
2018-06-05T23:49:01.198Z,15.00
2018-06-05T23:52:05.987Z,15.00
2018-06-05T23:55:10.477Z,15.00
2018-06-05T23:58:14.842Z,15.00
